createdAt,value
2018-07-07T00:00:29.829Z,6.70
2018-07-07T00:01:29.330Z,5.90
2018-07-07T00:03:25.292Z,6.70
2018-07-07T00:04:25.301Z,6.90
2018-07-07T00:06:21.257Z,7.70
2018-07-07T00:07:21.238Z,6.90
2018-07-07T00:09:17.223Z,6.50
2018-07-07T00:11:33.689Z,6.30
2018-07-07T00:12:33.668Z,6.50
2018-07-07T00:14:30.119Z,6.30
2018-07-07T00:15:30.113Z,6.40
2018-07-07T00:17:25.119Z,6.90
2018-07-07T00:18:25.097Z,6.80
2018-07-07T00:20:21.088Z,6.70
2018-07-07T00:21:21.060Z,6.20
2018-07-07T00:23:17.050Z,6.30
2018-07-07T00:24:17.019Z,6.00
2018-07-07T00:26:12.994Z,7.10
2018-07-07T00:27:12.989Z,7.20
2018-07-07T00:29:09.945Z,6.00
2018-07-07T00:30:08.937Z,6.50
2018-07-07T00:32:04.896Z,7.00
2018-07-07T00:33:04.882Z,6.70
2018-07-07T00:35:01.349Z,7.00
2018-07-07T00:36:00.875Z,6.10
2018-07-07T00:37:57.801Z,6.90
2018-07-07T00:38:56.776Z,7.00
2018-07-07T00:40:52.738Z,6.70
2018-07-07T00:41:52.752Z,6.20
2018-07-07T00:43:48.708Z,6.20
2018-07-07T00:44:48.681Z,6.40
2018-07-07T00:46:46.152Z,7.00
2018-07-07T00:47:44.650Z,6.70
2018-07-07T00:49:40.627Z,7.10
2018-07-07T00:50:40.598Z,6.00
2018-07-07T00:52:37.561Z,6.30
2018-07-07T00:53:36.568Z,6.30
2018-07-07T00:55:33.538Z,6.60
2018-07-07T00:56:32.517Z,7.10
2018-07-07T00:58:29.477Z,6.70
2018-07-07T00:59:28.988Z,6.60
2018-07-07T01:01:24.417Z,6.60
2018-07-07T01:02:24.408Z,6.40
2018-07-07T01:04:24.838Z,5.80
2018-07-07T01:05:24.847Z,5.60
2018-07-07T01:07:20.818Z,6.00
2018-07-07T01:08:20.816Z,6.00
2018-07-07T01:10:16.801Z,5.90
2018-07-07T01:11:17.271Z,5.90
2018-07-07T01:13:12.734Z,6.00
2018-07-07T01:14:12.718Z,6.00
2018-07-07T01:16:10.164Z,6.50
2018-07-07T01:17:08.660Z,5.90
2018-07-07T01:19:04.634Z,6.20
2018-07-07T01:20:04.626Z,6.20
2018-07-07T01:22:00.590Z,6.20
2018-07-07T01:23:00.578Z,6.40
2018-07-07T01:24:56.546Z,6.30
2018-07-07T01:25:56.542Z,6.80
2018-07-07T01:27:52.500Z,6.50
2018-07-07T01:28:54.002Z,6.50
2018-07-07T01:30:50.436Z,6.10
2018-07-07T01:31:50.945Z,6.30
2018-07-07T01:33:46.948Z,6.10
2018-07-07T01:34:46.383Z,6.30
2018-07-07T01:36:42.853Z,6.00
2018-07-07T01:37:42.340Z,6.30
2018-07-07T01:39:38.292Z,6.10
2018-07-07T01:40:38.294Z,6.00
2018-07-07T01:42:35.250Z,6.30
2018-07-07T01:43:34.255Z,6.90
2018-07-07T01:45:30.242Z,6.70
2018-07-07T01:46:30.207Z,6.20
2018-07-07T01:48:27.180Z,6.60
2018-07-07T01:49:26.661Z,6.30
2018-07-07T01:51:22.102Z,6.40
2018-07-07T01:52:22.082Z,6.30
2018-07-07T01:54:18.052Z,6.80
2018-07-07T01:55:18.024Z,6.60
2018-07-07T01:57:13.978Z,6.30
2018-07-07T01:58:13.981Z,6.70
2018-07-07T02:00:10.439Z,6.40
2018-07-07T02:01:09.927Z,6.70
2018-07-07T02:03:05.910Z,6.60
2018-07-07T02:04:05.903Z,6.00
2018-07-07T02:06:02.365Z,6.70
2018-07-07T02:07:01.853Z,7.00
2018-07-07T02:08:57.783Z,6.20
2018-07-07T02:09:58.304Z,6.30
2018-07-07T02:11:54.769Z,6.60
2018-07-07T02:12:53.757Z,6.70
2018-07-07T02:14:49.713Z,6.80
2018-07-07T02:15:49.710Z,6.30
2018-07-07T02:17:46.671Z,6.90
2018-07-07T02:18:45.726Z,6.20
2018-07-07T02:20:42.146Z,7.60
2018-07-07T02:21:41.648Z,6.60
2018-07-07T02:23:38.612Z,6.30
2018-07-07T02:24:37.647Z,5.90
2018-07-07T02:26:33.553Z,5.90
2018-07-07T02:27:33.559Z,6.70
2018-07-07T02:29:29.499Z,6.60
2018-07-07T02:30:29.508Z,6.00
2018-07-07T02:32:26.460Z,6.30
2018-07-07T02:33:25.955Z,6.30
2018-07-07T02:35:21.464Z,6.90
2018-07-07T02:36:21.438Z,6.30
2018-07-07T02:38:17.417Z,7.20
2018-07-07T02:39:17.894Z,6.50
2018-07-07T02:41:13.394Z,6.70
2018-07-07T02:42:13.864Z,5.90
2018-07-07T02:44:09.846Z,6.10
2018-07-07T02:45:10.304Z,5.80
2018-07-07T02:47:05.776Z,6.00
2018-07-07T02:48:05.299Z,6.10
2018-07-07T02:50:01.244Z,5.30
2018-07-07T02:51:01.252Z,5.70
2018-07-07T02:52:57.190Z,6.00
2018-07-07T02:53:57.222Z,6.10
2018-07-07T02:55:53.165Z,5.90
2018-07-07T02:56:53.153Z,6.40
2018-07-07T02:58:49.611Z,5.80
2018-07-07T02:59:50.618Z,6.50
2018-07-07T03:01:45.064Z,5.60
2018-07-07T03:02:45.042Z,5.30
2018-07-07T03:04:42.031Z,5.50
2018-07-07T03:05:41.006Z,5.60
2018-07-07T03:07:36.996Z,5.50
2018-07-07T03:08:36.955Z,5.80
2018-07-07T03:10:32.901Z,5.70
2018-07-07T03:11:32.921Z,5.50
2018-07-07T03:13:31.369Z,5.70
2018-07-07T03:14:30.874Z,5.40
2018-07-07T03:16:26.835Z,5.80
2018-07-07T03:17:26.823Z,5.50
2018-07-07T03:19:24.269Z,5.10
2018-07-07T03:20:22.782Z,5.00
2018-07-07T03:22:19.676Z,5.00
2018-07-07T03:23:18.735Z,5.20
2018-07-07T03:25:15.716Z,5.10
2018-07-07T03:26:15.192Z,5.00
2018-07-07T03:28:10.642Z,6.00
2018-07-07T03:29:10.616Z,6.20
2018-07-07T03:31:06.569Z,5.40
2018-07-07T03:32:06.569Z,5.60
2018-07-07T03:34:03.033Z,5.50
2018-07-07T03:35:02.503Z,5.80
2018-07-07T03:36:59.467Z,5.60
2018-07-07T03:37:58.504Z,5.60
2018-07-07T03:39:54.428Z,5.20
2018-07-07T03:40:54.455Z,5.00
2018-07-07T03:42:50.404Z,5.20
2018-07-07T03:43:50.411Z,5.40
2018-07-07T03:45:46.863Z,4.80
2018-07-07T03:46:46.339Z,5.30
2018-07-07T03:48:42.320Z,5.50
2018-07-07T03:49:42.276Z,5.30
2018-07-07T03:51:38.255Z,5.10
2018-07-07T03:52:38.758Z,5.10
2018-07-07T03:54:35.200Z,5.40
2018-07-07T03:55:34.686Z,5.40
2018-07-07T03:57:30.154Z,5.30
2018-07-07T03:58:30.134Z,5.50
2018-07-07T04:00:26.055Z,5.20
2018-07-07T04:01:26.585Z,5.30
2018-07-07T04:03:22.056Z,4.70
2018-07-07T04:04:22.527Z,4.90
2018-07-07T04:06:18.006Z,5.40
2018-07-07T04:07:18.039Z,5.20
2018-07-07T04:09:14.955Z,5.10
2018-07-07T04:10:13.973Z,5.60
2018-07-07T04:12:10.413Z,5.30
2018-07-07T04:13:11.425Z,5.40
2018-07-07T04:15:06.406Z,5.00
2018-07-07T04:16:05.863Z,4.90
2018-07-07T04:18:03.834Z,5.20
2018-07-07T04:19:04.331Z,5.20
2018-07-07T04:21:00.764Z,5.30
2018-07-07T04:21:59.756Z,5.40
2018-07-07T04:23:56.229Z,5.10
2018-07-07T04:24:56.202Z,4.90
2018-07-07T04:26:54.164Z,5.50
2018-07-07T04:27:53.627Z,5.40
2018-07-07T04:29:49.643Z,6.10
2018-07-07T04:30:49.596Z,5.40
2018-07-07T04:32:47.098Z,4.90
2018-07-07T04:33:46.063Z,4.60
2018-07-07T04:35:42.032Z,5.30
2018-07-07T04:36:41.492Z,4.70
2018-07-07T04:38:37.467Z,5.50
2018-07-07T04:39:37.962Z,5.70
2018-07-07T04:41:33.372Z,5.00
2018-07-07T04:42:33.365Z,4.80
2018-07-07T04:44:29.339Z,4.80
2018-07-07T04:45:29.310Z,5.00
2018-07-07T04:47:25.843Z,5.50
2018-07-07T04:48:25.277Z,5.00
2018-07-07T04:50:24.175Z,5.00
2018-07-07T04:51:23.264Z,5.50
2018-07-07T04:53:21.358Z,6.30
2018-07-07T04:54:22.200Z,6.50
2018-07-07T04:56:17.366Z,6.00
2018-07-07T04:57:17.328Z,6.00
2018-07-07T04:59:13.300Z,5.60
2018-07-07T05:00:13.287Z,5.50
2018-07-07T05:02:09.258Z,6.20
2018-07-07T05:03:09.266Z,5.40
2018-07-07T05:05:05.214Z,6.10
2018-07-07T05:06:05.267Z,6.50
2018-07-07T05:08:01.175Z,6.60
2018-07-07T05:09:02.084Z,6.50
2018-07-07T05:10:57.133Z,6.40
2018-07-07T05:13:13.062Z,6.60
2018-07-07T05:14:14.084Z,6.60
2018-07-07T05:16:09.051Z,6.70
2018-07-07T05:17:09.601Z,6.60
2018-07-07T05:19:05.020Z,6.70
2018-07-07T05:20:06.009Z,6.30
2018-07-07T05:22:00.987Z,5.90
2018-07-07T05:23:00.990Z,6.20
2018-07-07T05:24:56.938Z,6.60
2018-07-07T05:25:57.457Z,6.30
2018-07-07T05:27:54.901Z,6.90
2018-07-07T05:28:53.906Z,6.50
2018-07-07T05:30:49.873Z,6.80
2018-07-07T05:31:49.913Z,6.50
2018-07-07T05:33:46.395Z,7.50
2018-07-07T05:34:45.813Z,7.00
2018-07-07T05:36:41.780Z,6.90
2018-07-07T05:37:41.790Z,7.20
2018-07-07T05:39:38.243Z,7.10
2018-07-07T05:40:37.734Z,6.90
2018-07-07T05:42:35.205Z,6.40
2018-07-07T05:43:34.690Z,6.40
2018-07-07T05:45:30.658Z,6.70
2018-07-07T05:46:30.646Z,6.20
2018-07-07T05:48:28.603Z,7.50
2018-07-07T05:49:28.599Z,6.80
2018-07-07T05:51:24.584Z,7.20
2018-07-07T05:52:24.555Z,7.00
2018-07-07T05:54:21.557Z,6.80
2018-07-07T05:55:20.590Z,7.10
2018-07-07T05:57:16.991Z,6.80
2018-07-07T05:58:16.484Z,6.80
2018-07-07T06:00:15.949Z,6.50
2018-07-07T06:01:16.437Z,6.80
2018-07-07T06:03:13.159Z,5.70
2018-07-07T06:04:13.563Z,6.40
2018-07-07T06:06:08.568Z,5.80
2018-07-07T06:07:08.530Z,6.40
2018-07-07T06:09:04.484Z,6.00
2018-07-07T06:10:04.497Z,6.10
2018-07-07T06:12:00.442Z,6.60
2018-07-07T06:13:00.450Z,6.20
2018-07-07T06:14:57.464Z,6.00
2018-07-07T06:15:56.946Z,6.70
2018-07-07T06:17:52.990Z,6.20
2018-07-07T06:18:53.886Z,5.90
2018-07-07T06:20:52.814Z,5.50
2018-07-07T06:21:52.817Z,6.20
2018-07-07T06:23:49.802Z,6.10
2018-07-07T06:24:48.806Z,6.30
2018-07-07T06:26:45.724Z,5.90
2018-07-07T06:27:45.676Z,5.90
2018-07-07T06:29:40.710Z,6.10
2018-07-07T06:30:40.716Z,6.40
2018-07-07T06:32:37.662Z,5.60
2018-07-07T06:33:37.199Z,5.50
2018-07-07T06:35:33.152Z,5.60
2018-07-07T06:36:32.609Z,5.90
2018-07-07T06:38:28.601Z,5.90
2018-07-07T06:39:28.547Z,6.00
2018-07-07T06:41:25.534Z,5.70
2018-07-07T06:42:24.520Z,6.20
2018-07-07T06:44:20.485Z,5.30
2018-07-07T06:45:20.472Z,5.50
2018-07-07T06:47:17.446Z,5.70
2018-07-07T06:48:16.485Z,5.80
2018-07-07T06:50:12.923Z,5.30
2018-07-07T06:51:12.921Z,5.40
2018-07-07T06:53:08.875Z,5.80
2018-07-07T06:54:08.388Z,5.80
2018-07-07T06:56:06.349Z,5.50
2018-07-07T06:57:06.347Z,5.20
2018-07-07T06:59:02.311Z,4.90
2018-07-07T07:00:02.979Z,5.30
2018-07-07T07:02:03.342Z,5.10
2018-07-07T07:02:58.274Z,5.40
2018-07-07T07:05:06.424Z,5.00
2018-07-07T07:07:29.732Z,5.40
2018-07-07T07:08:23.895Z,5.30
2018-07-07T07:10:19.002Z,5.60
2018-07-07T07:11:18.973Z,5.50
2018-07-07T07:13:14.939Z,5.20
2018-07-07T07:14:14.936Z,5.80
2018-07-07T07:16:10.891Z,5.60
2018-07-07T07:17:10.898Z,5.30
2018-07-07T07:19:36.382Z,4.80
2018-07-07T07:20:08.875Z,5.20
2018-07-07T07:22:11.153Z,4.80
2018-07-07T07:23:06.325Z,5.20
2018-07-07T07:25:01.894Z,5.30
2018-07-07T07:26:01.898Z,5.40
2018-07-07T07:27:59.331Z,4.70
2018-07-07T07:29:01.226Z,4.70
2018-07-07T07:30:55.264Z,4.30
2018-07-07T07:34:46.375Z,4.80
2018-07-07T07:35:45.880Z,5.80
2018-07-07T07:37:41.880Z,4.40
2018-07-07T07:38:41.845Z,4.50
2018-07-07T07:40:39.300Z,4.80
2018-07-07T07:41:37.801Z,5.00
2018-07-07T07:43:48.426Z,4.00
2018-07-07T07:46:35.181Z,4.20
2018-07-07T07:47:35.122Z,4.30
2018-07-07T07:49:31.084Z,3.50
2018-07-07T07:50:31.744Z,3.70
2018-07-07T07:52:27.136Z,4.10
2018-07-07T07:53:28.062Z,3.90
2018-07-07T07:56:57.688Z,3.90
2018-07-07T08:00:04.657Z,3.40
2018-07-07T08:01:04.303Z,3.10
2018-07-07T08:03:00.502Z,2.80
2018-07-07T08:04:00.662Z,3.10
2018-07-07T08:05:56.459Z,3.20
2018-07-07T08:08:13.966Z,2.90
2018-07-07T08:11:20.049Z,2.90
2018-07-07T08:12:20.065Z,3.60
2018-07-07T08:14:16.048Z,2.70
2018-07-07T08:15:16.496Z,2.70
2018-07-07T08:17:12.469Z,2.70
2018-07-07T08:18:11.989Z,2.90
2018-07-07T08:20:11.210Z,2.90
2018-07-07T08:21:10.445Z,2.90
2018-07-07T08:23:05.868Z,2.70
2018-07-07T08:24:05.882Z,2.70
2018-07-07T08:26:01.861Z,2.80
2018-07-07T08:27:01.853Z,2.80
2018-07-07T08:28:58.814Z,3.30
2018-07-07T08:29:58.304Z,2.90
2018-07-07T08:31:53.768Z,2.80
2018-07-07T08:32:53.803Z,3.60
2018-07-07T08:34:52.747Z,2.80
2018-07-07T08:35:52.766Z,2.90
2018-07-07T08:37:48.878Z,3.20
2018-07-07T08:38:47.893Z,3.30
2018-07-07T08:40:44.863Z,2.80
2018-07-07T08:41:43.854Z,3.20
2018-07-07T08:43:39.838Z,3.20
2018-07-07T08:44:39.815Z,3.50
2018-07-07T08:46:37.811Z,3.20
2018-07-07T08:47:38.286Z,3.30
2018-07-07T08:49:34.243Z,3.10
2018-07-07T08:50:33.753Z,3.40
2018-07-07T08:52:29.737Z,4.40
2018-07-07T08:54:45.648Z,3.40
2018-07-07T08:55:45.648Z,3.80
2018-07-07T08:57:43.702Z,3.00
2018-07-07T08:58:46.911Z,3.00
2018-07-07T09:00:46.013Z,3.40
2018-07-07T09:01:42.585Z,4.10
2018-07-07T09:03:39.061Z,3.20
2018-07-07T09:04:39.547Z,3.20
2018-07-07T09:06:33.092Z,3.00
2018-07-07T09:07:33.137Z,3.50
2018-07-07T09:09:27.571Z,3.10
2018-07-07T09:10:27.572Z,3.40
2018-07-07T09:12:23.552Z,3.20
2018-07-07T09:13:23.511Z,2.90
2018-07-07T09:15:24.495Z,3.30
2018-07-07T09:16:23.966Z,3.30
2018-07-07T09:18:19.977Z,3.20
2018-07-07T09:19:19.933Z,3.60
2018-07-07T09:21:18.903Z,2.90
2018-07-07T09:22:18.094Z,3.00
2018-07-07T09:24:15.034Z,3.20
2018-07-07T09:25:14.061Z,3.40
2018-07-07T09:27:10.545Z,3.90
2018-07-07T09:28:10.017Z,3.00
2018-07-07T09:30:07.502Z,3.30
2018-07-07T09:31:05.983Z,3.00
2018-07-07T09:33:01.963Z,2.60
2018-07-07T09:34:01.933Z,2.60
2018-07-07T09:35:57.910Z,3.40
2018-07-07T09:36:57.885Z,3.30
2018-07-07T09:38:54.403Z,2.90
2018-07-07T09:39:54.361Z,3.20
2018-07-07T09:41:50.764Z,2.90
2018-07-07T09:42:50.791Z,2.40
2018-07-07T09:44:47.761Z,2.70
2018-07-07T09:45:47.248Z,3.00
2018-07-07T09:47:43.228Z,2.80
2018-07-07T09:48:42.779Z,3.30
2018-07-07T09:50:38.764Z,3.10
2018-07-07T09:51:38.759Z,2.90
2018-07-07T09:53:37.216Z,3.00
2018-07-07T09:54:36.871Z,3.30
2018-07-07T09:56:33.349Z,3.20
2018-07-07T09:57:33.327Z,3.20
2018-07-07T10:01:05.450Z,3.50
2018-07-07T10:02:05.465Z,3.10
2018-07-07T10:04:01.427Z,3.30
2018-07-07T10:05:01.436Z,3.30
2018-07-07T10:06:58.847Z,3.00
2018-07-07T10:07:58.895Z,2.90
2018-07-07T10:09:55.567Z,3.00
2018-07-07T10:10:56.368Z,2.70
2018-07-07T10:12:53.529Z,2.80
2018-07-07T10:13:53.535Z,3.10
2018-07-07T10:15:50.000Z,2.70
2018-07-07T10:16:49.493Z,3.50
2018-07-07T10:18:45.968Z,2.90
2018-07-07T10:19:45.954Z,2.80
2018-07-07T10:21:42.404Z,2.80
2018-07-07T10:22:41.399Z,2.70
2018-07-07T10:24:37.857Z,2.90
2018-07-07T10:25:37.372Z,3.20
2018-07-07T10:27:33.356Z,2.80
2018-07-07T10:28:33.333Z,3.00
2018-07-07T10:30:29.291Z,2.80
2018-07-07T10:31:29.332Z,3.00
2018-07-07T10:33:25.273Z,2.80
2018-07-07T10:34:26.264Z,3.00
2018-07-07T10:36:25.237Z,3.70
2018-07-07T10:37:42.748Z,3.10
2018-07-07T10:40:55.020Z,2.80
2018-07-07T10:41:54.508Z,2.90
2018-07-07T10:43:49.969Z,2.70
2018-07-07T10:44:50.988Z,3.00
2018-07-07T10:46:45.980Z,2.90
2018-07-07T10:47:47.393Z,2.70
2018-07-07T10:49:40.928Z,3.20
2018-07-07T10:50:40.415Z,3.30
2018-07-07T10:52:37.882Z,3.30
2018-07-07T10:53:36.382Z,2.70
2018-07-07T10:55:32.381Z,3.00
2018-07-07T10:56:32.832Z,2.80
2018-07-07T10:58:29.799Z,3.20
2018-07-07T10:59:28.255Z,2.60
2018-07-07T11:01:24.737Z,2.80
2018-07-07T11:02:24.247Z,2.80
2018-07-07T11:04:20.771Z,2.80
2018-07-07T11:05:20.181Z,2.50
2018-07-07T11:07:16.178Z,2.60
2018-07-07T11:08:16.181Z,2.60
2018-07-07T11:10:12.143Z,2.70
2018-07-07T11:11:12.118Z,3.20
2018-07-07T11:13:10.089Z,2.90
2018-07-07T11:14:09.137Z,2.50
2018-07-07T11:16:06.106Z,2.70
2018-07-07T11:17:05.127Z,2.90
2018-07-07T11:19:01.093Z,3.30
2018-07-07T11:20:01.140Z,3.40
2018-07-07T11:21:57.077Z,2.40
2018-07-07T11:22:57.097Z,2.70
2018-07-07T11:24:53.025Z,2.90
2018-07-07T11:25:53.010Z,2.80
2018-07-07T11:27:49.010Z,2.60
2018-07-07T11:28:49.475Z,2.40
2018-07-07T11:30:44.930Z,2.80
2018-07-07T11:31:44.938Z,2.80
2018-07-07T11:33:43.431Z,2.70
2018-07-07T11:34:43.068Z,2.50
2018-07-07T11:36:39.783Z,2.70
2018-07-07T11:37:39.036Z,2.80
2018-07-07T11:39:34.964Z,2.90
2018-07-07T11:40:34.981Z,3.10
2018-07-07T11:42:30.939Z,2.70
2018-07-07T11:43:30.940Z,2.80
2018-07-07T11:45:29.109Z,2.50
2018-07-07T11:46:29.109Z,2.60
2018-07-07T11:48:25.009Z,2.90
2018-07-07T11:49:25.552Z,3.00
2018-07-07T11:51:21.043Z,2.70
2018-07-07T11:52:21.033Z,2.70
2018-07-07T11:54:17.541Z,2.90
2018-07-07T11:55:17.022Z,2.60
2018-07-07T11:57:13.028Z,2.80
2018-07-07T11:58:12.975Z,2.60
2018-07-07T12:00:08.975Z,2.60
2018-07-07T12:01:09.436Z,2.50
2018-07-07T12:03:05.907Z,3.20
2018-07-07T12:04:04.932Z,3.10
2018-07-07T12:06:00.886Z,2.90
2018-07-07T12:07:01.810Z,3.00
2018-07-07T12:08:57.831Z,3.10
2018-07-07T12:09:57.839Z,3.10
2018-07-07T12:11:55.308Z,2.90
2018-07-07T12:12:53.803Z,3.00
2018-07-07T12:14:49.773Z,3.10
2018-07-07T12:15:49.772Z,2.80
2018-07-07T12:17:46.244Z,3.00
2018-07-07T12:18:45.745Z,3.10
2018-07-07T12:20:42.723Z,2.90
2018-07-07T12:21:41.727Z,3.00
2018-07-07T12:23:37.696Z,3.10
2018-07-07T12:24:37.706Z,3.00
2018-07-07T12:26:34.661Z,3.20
2018-07-07T12:27:33.649Z,3.00
2018-07-07T12:29:31.631Z,3.10
2018-07-07T12:30:31.628Z,2.80
2018-07-07T12:32:27.584Z,3.20
2018-07-07T12:33:27.592Z,3.00
2018-07-07T12:35:25.706Z,2.70
2018-07-07T12:36:25.710Z,2.50
2018-07-07T12:38:24.700Z,2.80
2018-07-07T12:39:23.812Z,2.80
2018-07-07T12:41:20.280Z,2.90
2018-07-07T12:42:19.774Z,2.90
2018-07-07T12:44:18.247Z,2.90
2018-07-07T12:45:17.741Z,2.90
2018-07-07T12:47:16.226Z,2.80
2018-07-07T12:48:15.703Z,2.60
2018-07-07T12:50:12.159Z,2.50
2018-07-07T12:51:11.673Z,2.40
2018-07-07T12:53:07.631Z,2.70
2018-07-07T12:54:07.627Z,2.40
2018-07-07T12:56:03.647Z,2.40
2018-07-07T12:58:58.098Z,2.40
2018-07-07T13:01:15.604Z,2.70
2018-07-07T13:02:14.059Z,2.60
2018-07-07T13:04:10.544Z,2.30
2018-07-07T13:05:10.533Z,2.40
2018-07-07T13:07:06.094Z,2.80
2018-07-07T13:08:05.984Z,2.40
2018-07-07T13:10:03.933Z,2.90
2018-07-07T13:11:03.963Z,2.60
2018-07-07T13:13:02.907Z,2.90
2018-07-07T13:14:02.925Z,2.40
2018-07-07T13:15:58.175Z,2.50
2018-07-07T13:16:58.115Z,3.00
2018-07-07T13:18:54.098Z,2.40
2018-07-07T13:19:54.054Z,2.90
2018-07-07T13:21:51.016Z,2.40
2018-07-07T13:22:50.025Z,2.50
2018-07-07T13:24:45.977Z,2.40
2018-07-07T13:25:46.015Z,2.50
2018-07-07T13:27:41.979Z,2.40
2018-07-07T13:28:42.961Z,2.90
2018-07-07T13:30:37.959Z,2.50
2018-07-07T13:31:37.936Z,2.70
2018-07-07T13:33:33.903Z,2.90
2018-07-07T13:34:33.902Z,2.60
2018-07-07T13:36:28.873Z,2.60
2018-07-07T13:37:28.400Z,2.30
2018-07-07T13:39:24.350Z,2.80
2018-07-07T13:40:24.342Z,2.70
2018-07-07T13:42:20.310Z,3.20
2018-07-07T13:43:20.302Z,2.80
2018-07-07T13:45:15.292Z,2.70
2018-07-07T13:46:14.757Z,2.90
2018-07-07T13:48:11.236Z,2.50
2018-07-07T13:49:10.733Z,2.70
2018-07-07T13:51:06.692Z,2.70
2018-07-07T13:52:07.179Z,2.60
2018-07-07T13:54:03.183Z,2.60
2018-07-07T13:55:02.652Z,2.50
2018-07-07T13:56:58.618Z,2.80
2018-07-07T13:57:58.637Z,2.70
2018-07-07T13:59:53.100Z,3.00
2018-07-07T14:00:53.097Z,3.00
2018-07-07T14:02:49.091Z,2.10
2018-07-07T14:03:50.076Z,2.70
2018-07-07T14:05:44.536Z,2.70
2018-07-07T14:06:43.550Z,2.60
2018-07-07T14:08:39.489Z,2.70
2018-07-07T14:09:39.495Z,2.60
2018-07-07T14:11:35.456Z,2.60
2018-07-07T14:12:35.484Z,2.70
2018-07-07T14:14:31.442Z,2.60
2018-07-07T14:15:31.415Z,2.40
2018-07-07T14:17:27.411Z,2.70
2018-07-07T14:18:27.410Z,4.50
2018-07-07T14:20:23.878Z,2.50
2018-07-07T14:21:23.443Z,2.70
2018-07-07T14:23:19.867Z,2.50
2018-07-07T14:24:19.414Z,2.80
2018-07-07T14:26:15.350Z,2.20
2018-07-07T14:27:15.336Z,2.30
2018-07-07T14:29:11.304Z,2.30
2018-07-07T14:30:11.803Z,2.40
2018-07-07T14:32:08.273Z,2.40
2018-07-07T14:33:07.269Z,2.50
2018-07-07T14:35:03.232Z,2.70
2018-07-07T14:36:03.230Z,2.70
2018-07-07T14:37:59.178Z,2.80
2018-07-07T14:38:59.175Z,2.70
2018-07-07T14:40:56.161Z,3.40
2018-07-07T14:41:56.179Z,2.70
2018-07-07T14:43:53.323Z,2.50
2018-07-07T14:44:53.349Z,2.60
2018-07-07T14:46:49.308Z,2.60
2018-07-07T14:47:50.310Z,2.70
2018-07-07T14:49:46.324Z,2.60
2018-07-07T14:50:45.296Z,2.40
2018-07-07T14:52:41.272Z,2.50
2018-07-07T14:53:41.265Z,2.40
2018-07-07T14:55:37.740Z,2.60
2018-07-07T14:56:38.229Z,2.70
2018-07-07T14:58:33.178Z,2.90
2018-07-07T14:59:34.700Z,3.10
2018-07-07T15:01:31.144Z,2.80
2018-07-07T15:02:30.211Z,2.50
2018-07-07T15:04:27.238Z,2.80
2018-07-07T15:05:26.277Z,3.10
2018-07-07T15:07:22.330Z,2.60
2018-07-07T15:08:22.276Z,2.90
2018-07-07T15:10:20.129Z,2.70
2018-07-07T15:11:19.131Z,2.40
2018-07-07T15:13:14.158Z,2.50
2018-07-07T15:14:14.170Z,2.50
2018-07-07T15:16:10.207Z,2.70
2018-07-07T15:17:10.184Z,2.40
2018-07-07T15:20:45.978Z,2.70
2018-07-07T15:21:45.008Z,2.70
2018-07-07T15:23:41.459Z,2.70
2018-07-07T15:24:42.005Z,2.60
2018-07-07T15:26:37.426Z,2.70
2018-07-07T15:27:36.926Z,2.80
2018-07-07T15:29:32.883Z,2.90
2018-07-07T15:30:32.878Z,2.40
2018-07-07T15:32:29.855Z,2.50
2018-07-07T15:33:28.852Z,2.60
2018-07-07T15:35:25.334Z,2.60
2018-07-07T15:36:24.840Z,2.30
2018-07-07T15:38:20.764Z,2.50
2018-07-07T15:39:21.291Z,2.80
2018-07-07T15:41:16.778Z,2.50
2018-07-07T15:42:16.759Z,2.60
2018-07-07T15:44:12.713Z,2.30
2018-07-07T15:45:13.218Z,2.50
2018-07-07T15:47:09.685Z,2.80
2018-07-07T15:48:08.687Z,2.70
2018-07-07T15:50:04.656Z,2.40
2018-07-07T15:51:04.675Z,2.50
2018-07-07T15:53:01.125Z,2.50
2018-07-07T15:54:00.615Z,2.60
2018-07-07T15:55:57.100Z,2.70
2018-07-07T15:56:56.595Z,2.70
2018-07-07T15:58:52.544Z,2.80
2018-07-07T15:59:52.546Z,2.60
2018-07-07T16:01:48.533Z,2.60
2018-07-07T16:02:48.581Z,2.90
2018-07-07T16:04:45.507Z,2.50
2018-07-07T16:05:44.460Z,2.40
2018-07-07T16:07:40.457Z,2.70
2018-07-07T16:08:41.431Z,2.70
2018-07-07T16:10:36.492Z,2.50
2018-07-07T16:11:37.406Z,2.60
2018-07-07T16:13:32.490Z,3.10
2018-07-07T16:14:32.471Z,2.80
2018-07-07T16:16:29.148Z,2.60
2018-07-07T16:20:22.036Z,2.40
2018-07-07T16:24:15.444Z,2.70
2018-07-07T16:25:14.614Z,2.80
2018-07-07T16:28:55.000Z,2.80
2018-07-07T16:29:55.022Z,2.70
2018-07-07T16:31:54.488Z,2.90
2018-07-07T16:32:52.984Z,3.00
2018-07-07T16:34:49.074Z,2.50
2018-07-07T16:35:48.949Z,2.60
2018-07-07T16:37:45.928Z,2.60
2018-07-07T16:38:44.956Z,2.80
2018-07-07T16:40:43.084Z,2.60
2018-07-07T16:41:43.102Z,2.60
2018-07-07T16:43:41.063Z,2.90
2018-07-07T16:44:41.057Z,2.60
2018-07-07T16:46:43.531Z,2.80
2018-07-07T16:47:42.523Z,2.80
2018-07-07T16:49:40.553Z,2.60
2018-07-07T16:50:40.547Z,2.70
2018-07-07T16:52:36.543Z,2.50
2018-07-07T16:53:36.508Z,2.70
2018-07-07T16:55:36.470Z,2.80
2018-07-07T16:56:34.635Z,2.80
2018-07-07T16:58:31.611Z,3.00
2018-07-07T17:00:46.665Z,2.60
2018-07-07T17:03:02.501Z,2.80
2018-07-07T17:04:02.509Z,2.70
2018-07-07T17:05:58.994Z,2.60
2018-07-07T17:06:58.473Z,3.00
2018-07-07T17:08:56.575Z,3.10
2018-07-07T17:09:56.596Z,3.00
2018-07-07T17:11:55.063Z,3.10
2018-07-07T17:12:55.105Z,2.90
2018-07-07T17:14:52.540Z,2.90
2018-07-07T17:15:53.509Z,3.50
2018-07-07T17:17:50.490Z,3.10
2018-07-07T17:18:50.504Z,3.30
2018-07-07T17:20:45.454Z,3.10
2018-07-07T17:21:46.008Z,3.00
2018-07-07T17:23:44.492Z,3.00
2018-07-07T17:24:43.448Z,3.30
2018-07-07T17:26:42.421Z,3.10
2018-07-07T17:27:42.403Z,3.40
2018-07-07T17:29:37.592Z,3.10
2018-07-07T17:30:37.561Z,3.10
2018-07-07T17:32:39.565Z,2.70
2018-07-07T17:33:40.029Z,2.90
2018-07-07T17:35:34.523Z,2.80
2018-07-07T17:36:34.036Z,2.70
2018-07-07T17:38:32.511Z,2.70
2018-07-07T17:39:32.168Z,2.70
2018-07-07T17:41:30.626Z,3.10
2018-07-07T17:42:30.126Z,3.10
2018-07-07T17:44:26.614Z,2.90
2018-07-07T17:45:26.109Z,3.20
2018-07-07T17:47:26.575Z,2.90
2018-07-07T17:48:26.571Z,3.10
2018-07-07T17:50:22.598Z,2.60
2018-07-07T17:51:22.556Z,2.70
2018-07-07T17:53:21.540Z,2.60
2018-07-07T17:54:18.571Z,2.80
2018-07-07T17:56:14.578Z,2.40
2018-07-07T17:57:15.536Z,2.30
2018-07-07T17:59:10.983Z,2.60
2018-07-07T18:00:10.523Z,2.50
2018-07-07T18:02:07.455Z,2.90
2018-07-07T18:03:06.466Z,2.80
2018-07-07T18:05:04.599Z,2.90
2018-07-07T18:06:04.600Z,2.60
2018-07-07T18:08:00.502Z,2.60
2018-07-07T18:09:00.536Z,2.40
2018-07-07T18:11:00.507Z,2.40
2018-07-07T18:11:58.739Z,2.50
2018-07-07T18:13:54.606Z,2.50
2018-07-07T18:14:55.621Z,2.80
2018-07-07T18:16:51.102Z,2.60
2018-07-07T18:17:50.583Z,2.40
2018-07-07T18:19:46.574Z,2.80
2018-07-07T18:22:02.507Z,2.90
2018-07-07T18:23:02.524Z,2.50
2018-07-07T18:25:03.998Z,2.70
2018-07-07T18:26:03.012Z,3.30
2018-07-07T18:27:58.954Z,3.30
2018-07-07T18:28:58.937Z,3.40
2018-07-07T18:30:55.417Z,2.80
2018-07-07T18:31:54.927Z,2.70
2018-07-07T18:33:51.396Z,2.90
2018-07-07T18:34:50.860Z,3.20
2018-07-07T18:36:46.912Z,2.70
2018-07-07T18:37:47.010Z,2.80
2018-07-07T18:39:43.327Z,2.80
2018-07-07T18:40:42.837Z,3.20
2018-07-07T18:42:41.293Z,3.20
2018-07-07T18:43:40.798Z,2.80
2018-07-07T18:45:38.770Z,2.80
2018-07-07T18:46:39.273Z,2.50
2018-07-07T18:48:34.711Z,2.60
2018-07-07T18:49:34.699Z,2.50
2018-07-07T18:51:30.659Z,2.50
2018-07-07T18:52:30.677Z,2.70
2018-07-07T18:54:26.655Z,2.80
2018-07-07T18:55:26.621Z,2.50
2018-07-07T18:57:22.612Z,2.70
2018-07-07T18:58:22.584Z,2.70
2018-07-07T19:00:19.042Z,2.80
2018-07-07T19:01:18.544Z,2.60
2018-07-07T19:03:15.036Z,2.60
2018-07-07T19:04:15.000Z,2.80
2018-07-07T19:06:10.485Z,2.70
2018-07-07T19:07:10.496Z,2.60
2018-07-07T19:09:06.433Z,2.60
2018-07-07T19:10:06.944Z,2.70
2018-07-07T19:12:02.381Z,2.60
2018-07-07T19:13:02.902Z,2.80
2018-07-07T19:15:00.286Z,2.60
2018-07-07T19:15:58.370Z,2.50
2018-07-07T19:17:54.364Z,2.90
2018-07-07T19:18:54.324Z,2.60
2018-07-07T19:20:50.793Z,2.70
2018-07-07T19:21:50.305Z,2.30
2018-07-07T19:23:46.267Z,2.60
2018-07-07T19:24:46.257Z,2.50
2018-07-07T19:26:44.750Z,2.40
2018-07-07T19:27:44.224Z,2.40
2018-07-07T19:29:40.194Z,2.40
2018-07-07T19:30:40.204Z,2.60
2018-07-07T19:32:37.158Z,2.50
2018-07-07T19:33:37.198Z,2.20
2018-07-07T19:35:32.142Z,2.30
2018-07-07T19:36:32.133Z,2.50
2018-07-07T19:38:29.607Z,2.40
2018-07-07T19:39:28.606Z,2.50
2018-07-07T19:41:27.534Z,2.30
2018-07-07T19:42:27.053Z,2.40
2018-07-07T19:44:24.335Z,2.60
2018-07-07T19:45:24.344Z,2.40
2018-07-07T19:47:20.328Z,2.60
2018-07-07T19:48:20.314Z,2.50
2018-07-07T19:50:16.794Z,2.50
2018-07-07T19:51:16.777Z,2.50
2018-07-07T19:53:15.235Z,3.00
2018-07-07T19:54:15.245Z,2.70
2018-07-07T19:56:10.367Z,2.30
2018-07-07T19:57:10.375Z,2.10
2018-07-07T19:59:10.772Z,2.50
2018-07-07T20:00:10.343Z,2.20
2018-07-07T20:02:05.475Z,2.60